sensor_id;sensor_type;location;lat;lon;timestamp;temperature;humidity
74511;DHT22;62991;50.040;18.400;2024-03-02T00:01:07;11.10;75.20
74511;DHT22;62991;50.040;18.400;2024-03-02T00:04:08;11.10;75.40
74511;DHT22;62991;50.040;18.400;2024-03-02T00:07:08;11.10;74.80
74511;DHT22;62991;50.040;18.400;2024-03-02T00:10:11;11.10;75.20
74511;DHT22;62991;50.040;18.400;2024-03-02T00:13:13;11.10;75.00
74511;DHT22;62991;50.040;18.400;2024-03-02T00:16:13;11.10;75.00
74511;DHT22;62991;50.040;18.400;2024-03-02T00:19:14;11.20;74.50
74511;DHT22;62991;50.040;18.400;2024-03-02T00:22:15;11.10;74.80
74511;DHT22;62991;50.040;18.400;2024-03-02T00:25:16;10.90;75.50
74511;DHT22;62991;50.040;18.400;2024-03-02T00:28:33;10.90;76.00
74511;DHT22;62991;50.040;18.400;2024-03-02T00:31:34;11.00;75.30
74511;DHT22;62991;50.040;18.400;2024-03-02T00:34:35;11.10;74.80
74511;DHT22;62991;50.040;18.400;2024-03-02T00:37:36;10.80;75.90
74511;DHT22;62991;50.040;18.400;2024-03-02T00:40:37;10.90;75.70
74511;DHT22;62991;50.040;18.400;2024-03-02T00:43:58;11.10;75.00
74511;DHT22;62991;50.040;18.400;2024-03-02T00:46:59;11.00;75.00
74511;DHT22;62991;50.040;18.400;2024-03-02T00:50:00;11.10;74.80
74511;DHT22;62991;50.040;18.400;2024-03-02T00:53:02;11.20;74.40
74511;DHT22;62991;50.040;18.400;2024-03-02T00:56:03;11.20;74.20
74511;DHT22;62991;50.040;18.400;2024-03-02T00:59:03;11.20;74.20
74511;DHT22;62991;50.040;18.400;2024-03-02T01:02:04;11.20;74.00
74511;DHT22;62991;50.040;18.400;2024-03-02T01:05:05;11.20;74.00
74511;DHT22;62991;50.040;18.400;2024-03-02T01:08:06;11.30;73.50
74511;DHT22;62991;50.040;18.400;2024-03-02T01:11:07;11.30;73.40
74511;DHT22;62991;50.040;18.400;2024-03-02T01:14:08;11.20;73.50
74511;DHT22;62991;50.040;18.400;2024-03-02T01:17:08;11.00;74.40
74511;DHT22;62991;50.040;18.400;2024-03-02T01:20:09;10.80;75.00
74511;DHT22;62991;50.040;18.400;2024-03-02T01:23:10;10.70;75.70
74511;DHT22;62991;50.040;18.400;2024-03-02T01:26:11;10.60;76.10
74511;DHT22;62991;50.040;18.400;2024-03-02T01:29:12;10.80;75.40
74511;DHT22;62991;50.040;18.400;2024-03-02T01:32:12;10.90;74.70
74511;DHT22;62991;50.040;18.400;2024-03-02T01:35:13;10.80;74.90
74511;DHT22;62991;50.040;18.400;2024-03-02T01:38:15;10.80;75.00
74511;DHT22;62991;50.040;18.400;2024-03-02T01:41:16;10.90;74.70
74511;DHT22;62991;50.040;18.400;2024-03-02T01:44:16;11.00;74.30
74511;DHT22;62991;50.040;18.400;2024-03-02T01:47:17;11.10;73.80
74511;DHT22;62991;50.040;18.400;2024-03-02T01:50:28;11.10;73.90
74511;DHT22;62991;50.040;18.400;2024-03-02T01:53:30;11.10;73.60
74511;DHT22;62991;50.040;18.400;2024-03-02T01:56:30;11.10;73.60
74511;DHT22;62991;50.040;18.400;2024-03-02T01:59:31;11.20;73.50
74511;DHT22;62991;50.040;18.400;2024-03-02T02:02:32;10.90;74.10
74511;DHT22;62991;50.040;18.400;2024-03-02T02:05:33;10.70;75.00
74511;DHT22;62991;50.040;18.400;2024-03-02T02:08:37;10.40;75.20
74511;DHT22;62991;50.040;18.400;2024-03-02T02:11:38;10.40;76.30
74511;DHT22;62991;50.040;18.400;2024-03-02T02:14:39;10.40;76.00
74511;DHT22;62991;50.040;18.400;2024-03-02T02:17:43;10.50;75.90
74511;DHT22;62991;50.040;18.400;2024-03-02T02:20:44;10.60;75.30
74511;DHT22;62991;50.040;18.400;2024-03-02T02:23:44;10.70;75.00
74511;DHT22;62991;50.040;18.400;2024-03-02T02:26:48;10.70;74.90
74511;DHT22;62991;50.040;18.400;2024-03-02T02:29:49;10.80;74.70
74511;DHT22;62991;50.040;18.400;2024-03-02T02:32:50;10.80;74.40
74511;DHT22;62991;50.040;18.400;2024-03-02T02:35:50;10.80;73.90
74511;DHT22;62991;50.040;18.400;2024-03-02T02:38:52;10.80;74.10
74511;DHT22;62991;50.040;18.400;2024-03-02T02:41:52;10.80;74.50
74511;DHT22;62991;50.040;18.400;2024-03-02T02:44:53;10.90;74.20
74511;DHT22;62991;50.040;18.400;2024-03-02T02:47:54;10.90;73.90
74511;DHT22;62991;50.040;18.400;2024-03-02T02:50:55;11.00;73.40
74511;DHT22;62991;50.040;18.400;2024-03-02T02:53:55;11.10;73.20
74511;DHT22;62991;50.040;18.400;2024-03-02T02:56:56;11.20;73.00
74511;DHT22;62991;50.040;18.400;2024-03-02T02:59:57;11.10;72.40
74511;DHT22;62991;50.040;18.400;2024-03-02T03:02:57;10.60;73.80
74511;DHT22;62991;50.040;18.400;2024-03-02T03:05:58;10.60;74.80
74511;DHT22;62991;50.040;18.400;2024-03-02T03:08:58;10.70;74.00
74511;DHT22;62991;50.040;18.400;2024-03-02T03:11:59;10.70;73.90
74511;DHT22;62991;50.040;18.400;2024-03-02T03:15:00;10.70;73.90
74511;DHT22;62991;50.040;18.400;2024-03-02T03:18:01;10.70;73.70
74511;DHT22;62991;50.040;18.400;2024-03-02T03:21:01;10.80;73.50
74511;DHT22;62991;50.040;18.400;2024-03-02T03:24:03;10.70;73.50
74511;DHT22;62991;50.040;18.400;2024-03-02T03:27:03;10.80;73.50
74511;DHT22;62991;50.040;18.400;2024-03-02T03:30:04;10.90;73.30
74511;DHT22;62991;50.040;18.400;2024-03-02T03:33:06;10.90;73.00
74511;DHT22;62991;50.040;18.400;2024-03-02T03:36:07;10.90;72.90
74511;DHT22;62991;50.040;18.400;2024-03-02T03:39:08;11.00;72.80
74511;DHT22;62991;50.040;18.400;2024-03-02T03:42:08;11.00;72.40
74511;DHT22;62991;50.040;18.400;2024-03-02T03:45:09;11.00;72.60
74511;DHT22;62991;50.040;18.400;2024-03-02T03:48:10;10.90;72.60
74511;DHT22;62991;50.040;18.400;2024-03-02T03:51:10;10.70;73.10
74511;DHT22;62991;50.040;18.400;2024-03-02T03:54:11;10.30;74.00
74511;DHT22;62991;50.040;18.400;2024-03-02T03:57:12;10.10;75.30
74511;DHT22;62991;50.040;18.400;2024-03-02T04:00:13;10.30;74.20
74511;DHT22;62991;50.040;18.400;2024-03-02T04:03:13;10.10;74.90
74511;DHT22;62991;50.040;18.400;2024-03-02T04:06:14;10.30;75.00
74511;DHT22;62991;50.040;18.400;2024-03-02T04:09:16;10.50;73.90
74511;DHT22;62991;50.040;18.400;2024-03-02T04:12:17;10.60;73.40
74511;DHT22;62991;50.040;18.400;2024-03-02T04:15:18;10.70;73.00
74511;DHT22;62991;50.040;18.400;2024-03-02T04:18:19;10.80;72.70
74511;DHT22;62991;50.040;18.400;2024-03-02T04:21:20;10.80;72.60
74511;DHT22;62991;50.040;18.400;2024-03-02T04:24:20;10.90;72.40
74511;DHT22;62991;50.040;18.400;2024-03-02T04:27:21;10.90;72.30
74511;DHT22;62991;50.040;18.400;2024-03-02T04:30:22;11.00;72.00
74511;DHT22;62991;50.040;18.400;2024-03-02T04:33:22;10.90;72.00
74511;DHT22;62991;50.040;18.400;2024-03-02T04:36:23;10.90;72.20
74511;DHT22;62991;50.040;18.400;2024-03-02T04:39:24;11.00;72.10
74511;DHT22;62991;50.040;18.400;2024-03-02T04:42:25;11.00;72.00
74511;DHT22;62991;50.040;18.400;2024-03-02T04:45:26;10.80;72.60
74511;DHT22;62991;50.040;18.400;2024-03-02T04:48:27;10.50;73.60
74511;DHT22;62991;50.040;18.400;2024-03-02T04:51:27;10.30;74.20
74511;DHT22;62991;50.040;18.400;2024-03-02T04:54:28;10.10;74.70
74511;DHT22;62991;50.040;18.400;2024-03-02T04:57:29;10.00;75.50
74511;DHT22;62991;50.040;18.400;2024-03-02T05:00:29;10.00;75.30
74511;DHT22;62991;50.040;18.400;2024-03-02T05:03:30;10.10;75.30
74511;DHT22;62991;50.040;18.400;2024-03-02T05:06:31;10.00;75.20
74511;DHT22;62991;50.040;18.400;2024-03-02T05:09:31;10.00;75.50
74511;DHT22;62991;50.040;18.400;2024-03-02T05:12:32;9.70;76.10
74511;DHT22;62991;50.040;18.400;2024-03-02T05:15:56;9.70;76.90
74511;DHT22;62991;50.040;18.400;2024-03-02T05:18:57;10.20;75.20
74511;DHT22;62991;50.040;18.400;2024-03-02T05:21:57;10.20;74.50
74511;DHT22;62991;50.040;18.400;2024-03-02T05:24:58;10.10;75.20
74511;DHT22;62991;50.040;18.400;2024-03-02T05:28:00;10.20;74.90
74511;DHT22;62991;50.040;18.400;2024-03-02T05:31:00;10.00;74.90
74511;DHT22;62991;50.040;18.400;2024-03-02T05:34:01;10.00;75.00
74511;DHT22;62991;50.040;18.400;2024-03-02T05:37:03;9.90;75.00
74511;DHT22;62991;50.040;18.400;2024-03-02T05:40:04;9.90;75.70
74511;DHT22;62991;50.040;18.400;2024-03-02T05:43:06;10.30;74.40
74511;DHT22;62991;50.040;18.400;2024-03-02T05:46:06;10.30;74.00
74511;DHT22;62991;50.040;18.400;2024-03-02T05:49:07;10.20;73.80
74511;DHT22;62991;50.040;18.400;2024-03-02T05:52:08;10.10;74.50
74511;DHT22;62991;50.040;18.400;2024-03-02T05:55:09;10.20;74.20
74511;DHT22;62991;50.040;18.400;2024-03-02T05:58:09;10.20;74.10
74511;DHT22;62991;50.040;18.400;2024-03-02T06:01:28;10.10;74.80
74511;DHT22;62991;50.040;18.400;2024-03-02T06:04:29;10.20;74.20
74511;DHT22;62991;50.040;18.400;2024-03-02T06:07:30;10.40;73.80
74511;DHT22;62991;50.040;18.400;2024-03-02T06:10:31;10.60;72.80
74511;DHT22;62991;50.040;18.400;2024-03-02T06:13:31;10.70;72.40
74511;DHT22;62991;50.040;18.400;2024-03-02T06:16:32;10.90;74.40
74511;DHT22;62991;50.040;18.400;2024-03-02T06:19:33;10.90;73.30
74511;DHT22;62991;50.040;18.400;2024-03-02T06:22:35;10.90;72.90
74511;DHT22;62991;50.040;18.400;2024-03-02T06:25:35;10.80;73.50
74511;DHT22;62991;50.040;18.400;2024-03-02T06:28:36;10.80;73.10
74511;DHT22;62991;50.040;18.400;2024-03-02T06:31:37;10.90;72.10
74511;DHT22;62991;50.040;18.400;2024-03-02T06:34:37;10.70;73.00
74511;DHT22;62991;50.040;18.400;2024-03-02T06:37:38;10.60;73.10
74511;DHT22;62991;50.040;18.400;2024-03-02T06:40:42;10.70;73.10
74511;DHT22;62991;50.040;18.400;2024-03-02T06:43:42;10.90;72.50
74511;DHT22;62991;50.040;18.400;2024-03-02T06:46:43;11.00;72.20
74511;DHT22;62991;50.040;18.400;2024-03-02T06:49:44;11.20;71.60
74511;DHT22;62991;50.040;18.400;2024-03-02T06:52:44;11.30;71.20
74511;DHT22;62991;50.040;18.400;2024-03-02T06:55:46;11.30;71.00
74511;DHT22;62991;50.040;18.400;2024-03-02T06:58:47;11.40;70.50
74511;DHT22;62991;50.040;18.400;2024-03-02T07:01:47;11.50;70.40
74511;DHT22;62991;50.040;18.400;2024-03-02T07:04:48;11.40;70.20
74511;DHT22;62991;50.040;18.400;2024-03-02T07:07:49;11.30;70.80
74511;DHT22;62991;50.040;18.400;2024-03-02T07:10:49;11.20;70.70
74511;DHT22;62991;50.040;18.400;2024-03-02T07:13:50;11.20;70.90
74511;DHT22;62991;50.040;18.400;2024-03-02T07:16:51;11.40;70.70
74511;DHT22;62991;50.040;18.400;2024-03-02T07:19:51;11.50;69.80
74511;DHT22;62991;50.040;18.400;2024-03-02T07:22:52;11.50;70.10
74511;DHT22;62991;50.040;18.400;2024-03-02T07:25:53;11.60;70.10
74511;DHT22;62991;50.040;18.400;2024-03-02T07:28:57;11.80;69.80
74511;DHT22;62991;50.040;18.400;2024-03-02T07:31:58;11.90;69.30
74511;DHT22;62991;50.040;18.400;2024-03-02T07:34:58;12.00;68.90
74511;DHT22;62991;50.040;18.400;2024-03-02T07:37:59;12.10;68.80
74511;DHT22;62991;50.040;18.400;2024-03-02T07:41:00;12.10;68.60
74511;DHT22;62991;50.040;18.400;2024-03-02T07:44:01;12.20;68.40
74511;DHT22;62991;50.040;18.400;2024-03-02T07:47:01;12.30;67.90
74511;DHT22;62991;50.040;18.400;2024-03-02T07:50:02;12.40;67.40
74511;DHT22;62991;50.040;18.400;2024-03-02T07:53:03;12.50;66.70
74511;DHT22;62991;50.040;18.400;2024-03-02T07:56:04;12.60;66.60
74511;DHT22;62991;50.040;18.400;2024-03-02T07:59:06;12.70;66.20
74511;DHT22;62991;50.040;18.400;2024-03-02T08:02:07;12.90;65.80
74511;DHT22;62991;50.040;18.400;2024-03-02T08:05:08;13.00;65.60
74511;DHT22;62991;50.040;18.400;2024-03-02T08:08:09;13.10;65.00
74511;DHT22;62991;50.040;18.400;2024-03-02T08:11:10;13.20;64.50
74511;DHT22;62991;50.040;18.400;2024-03-02T08:14:10;13.30;64.40
74511;DHT22;62991;50.040;18.400;2024-03-02T08:17:11;13.30;64.10
74511;DHT22;62991;50.040;18.400;2024-03-02T08:20:12;13.40;63.70
74511;DHT22;62991;50.040;18.400;2024-03-02T08:23:13;13.50;63.90
74511;DHT22;62991;50.040;18.400;2024-03-02T08:26:13;13.60;63.70
74511;DHT22;62991;50.040;18.400;2024-03-02T08:29:14;13.70;63.40
74511;DHT22;62991;50.040;18.400;2024-03-02T08:32:15;13.80;63.10
74511;DHT22;62991;50.040;18.400;2024-03-02T08:35:17;13.80;63.50
74511;DHT22;62991;50.040;18.400;2024-03-02T08:38:18;13.90;63.70
74511;DHT22;62991;50.040;18.400;2024-03-02T08:41:19;13.90;63.40
74511;DHT22;62991;50.040;18.400;2024-03-02T08:44:19;14.00;63.30
74511;DHT22;62991;50.040;18.400;2024-03-02T08:47:20;14.10;63.20
74511;DHT22;62991;50.040;18.400;2024-03-02T08:50:21;14.20;63.30
74511;DHT22;62991;50.040;18.400;2024-03-02T08:53:22;14.40;63.30
74511;DHT22;62991;50.040;18.400;2024-03-02T08:56:22;14.40;63.10
74511;DHT22;62991;50.040;18.400;2024-03-02T08:59:24;14.50;62.70
74511;DHT22;62991;50.040;18.400;2024-03-02T09:02:25;14.50;62.80
74511;DHT22;62991;50.040;18.400;2024-03-02T09:05:26;14.50;63.10
74511;DHT22;62991;50.040;18.400;2024-03-02T09:08:27;14.60;62.80
74511;DHT22;62991;50.040;18.400;2024-03-02T09:11:27;14.60;62.90
74511;DHT22;62991;50.040;18.400;2024-03-02T09:14:28;14.70;62.80
74511;DHT22;62991;50.040;18.400;2024-03-02T09:17:29;14.80;62.70
74511;DHT22;62991;50.040;18.400;2024-03-02T09:20:30;14.90;63.00
74511;DHT22;62991;50.040;18.400;2024-03-02T09:23:30;15.00;62.60
74511;DHT22;62991;50.040;18.400;2024-03-02T09:26:31;15.20;62.70
74511;DHT22;62991;50.040;18.400;2024-03-02T09:29:32;15.30;62.50
74511;DHT22;62991;50.040;18.400;2024-03-02T09:32:32;15.30;63.10
74511;DHT22;62991;50.040;18.400;2024-03-02T09:35:33;15.30;63.20
74511;DHT22;62991;50.040;18.400;2024-03-02T09:38:34;15.50;62.90
74511;DHT22;62991;50.040;18.400;2024-03-02T09:41:35;15.50;62.20
74511;DHT22;62991;50.040;18.400;2024-03-02T09:44:37;15.70;61.80
74511;DHT22;62991;50.040;18.400;2024-03-02T09:47:38;15.70;61.60
74511;DHT22;62991;50.040;18.400;2024-03-02T09:50:39;15.90;60.80
74511;DHT22;62991;50.040;18.400;2024-03-02T09:53:40;16.00;60.40
74511;DHT22;62991;50.040;18.400;2024-03-02T09:56:40;16.00;60.60
74511;DHT22;62991;50.040;18.400;2024-03-02T09:59:41;16.10;59.20
74511;DHT22;62991;50.040;18.400;2024-03-02T10:02:42;16.00;60.00
74511;DHT22;62991;50.040;18.400;2024-03-02T10:05:43;16.20;59.20
74511;DHT22;62991;50.040;18.400;2024-03-02T10:08:44;16.20;58.70
74511;DHT22;62991;50.040;18.400;2024-03-02T10:11:44;16.40;59.00
74511;DHT22;62991;50.040;18.400;2024-03-02T10:14:45;16.60;58.80
74511;DHT22;62991;50.040;18.400;2024-03-02T10:17:46;16.80;58.80
74511;DHT22;62991;50.040;18.400;2024-03-02T10:20:46;16.90;59.00
74511;DHT22;62991;50.040;18.400;2024-03-02T10:23:49;17.10;58.30
74511;DHT22;62991;50.040;18.400;2024-03-02T10:26:50;17.10;58.70
74511;DHT22;62991;50.040;18.400;2024-03-02T10:29:51;17.20;58.30
74511;DHT22;62991;50.040;18.400;2024-03-02T10:32:53;17.20;58.70
74511;DHT22;62991;50.040;18.400;2024-03-02T10:35:54;17.30;58.20
74511;DHT22;62991;50.040;18.400;2024-03-02T10:38:58;17.20;58.30
74511;DHT22;62991;50.040;18.400;2024-03-02T10:42:00;17.10;57.20
74511;DHT22;62991;50.040;18.400;2024-03-02T10:45:06;17.10;57.10
74511;DHT22;62991;50.040;18.400;2024-03-02T10:48:08;17.00;57.00
74511;DHT22;62991;50.040;18.400;2024-03-02T10:51:10;16.70;56.70
74511;DHT22;62991;50.040;18.400;2024-03-02T10:54:10;16.60;56.30
74511;DHT22;62991;50.040;18.400;2024-03-02T10:57:11;16.40;55.90
74511;DHT22;62991;50.040;18.400;2024-03-02T11:00:14;16.10;55.90
74511;DHT22;62991;50.040;18.400;2024-03-02T11:03:16;15.90;56.90
74511;DHT22;62991;50.040;18.400;2024-03-02T11:06:17;15.90;56.90
74511;DHT22;62991;50.040;18.400;2024-03-02T11:09:22;16.00;57.80
74511;DHT22;62991;50.040;18.400;2024-03-02T11:12:29;16.00;57.90
74511;DHT22;62991;50.040;18.400;2024-03-02T11:15:30;16.10;57.70
74511;DHT22;62991;50.040;18.400;2024-03-02T11:18:33;16.10;58.50
74511;DHT22;62991;50.040;18.400;2024-03-02T11:21:34;16.00;57.90
74511;DHT22;62991;50.040;18.400;2024-03-02T11:24:36;16.00;57.90
74511;DHT22;62991;50.040;18.400;2024-03-02T11:28:04;16.00;58.00
74511;DHT22;62991;50.040;18.400;2024-03-02T11:31:05;16.00;58.30
74511;DHT22;62991;50.040;18.400;2024-03-02T11:34:32;16.30;58.70
74511;DHT22;62991;50.040;18.400;2024-03-02T11:37:33;16.20;59.00
74511;DHT22;62991;50.040;18.400;2024-03-02T11:40:35;16.30;59.30
74511;DHT22;62991;50.040;18.400;2024-03-02T11:43:40;16.50;58.80
74511;DHT22;62991;50.040;18.400;2024-03-02T11:46:45;16.70;58.60
74511;DHT22;62991;50.040;18.400;2024-03-02T11:49:49;16.90;58.10
74511;DHT22;62991;50.040;18.400;2024-03-02T11:52:50;16.70;58.50
74511;DHT22;62991;50.040;18.400;2024-03-02T11:55:52;16.40;59.40
74511;DHT22;62991;50.040;18.400;2024-03-02T11:58:54;16.40;59.20
74511;DHT22;62991;50.040;18.400;2024-03-02T12:01:56;16.40;60.20
74511;DHT22;62991;50.040;18.400;2024-03-02T12:04:57;16.20;60.10
74511;DHT22;62991;50.040;18.400;2024-03-02T12:08:00;16.20;60.10
74511;DHT22;62991;50.040;18.400;2024-03-02T12:11:01;16.40;60.40
74511;DHT22;62991;50.040;18.400;2024-03-02T12:14:02;16.30;59.50
74511;DHT22;62991;50.040;18.400;2024-03-02T12:17:05;16.30;59.70
74511;DHT22;62991;50.040;18.400;2024-03-02T12:20:07;16.20;60.70
74511;DHT22;62991;50.040;18.400;2024-03-02T12:23:07;16.10;60.60
74511;DHT22;62991;50.040;18.400;2024-03-02T12:26:08;15.80;60.60
74511;DHT22;62991;50.040;18.400;2024-03-02T12:29:09;15.60;61.40
74511;DHT22;62991;50.040;18.400;2024-03-02T12:32:10;15.40;62.20
74511;DHT22;62991;50.040;18.400;2024-03-02T12:35:11;15.40;61.80
74511;DHT22;62991;50.040;18.400;2024-03-02T12:38:15;15.00;62.50
74511;DHT22;62991;50.040;18.400;2024-03-02T12:41:16;14.70;62.50
74511;DHT22;62991;50.040;18.400;2024-03-02T12:44:17;14.60;62.40
74511;DHT22;62991;50.040;18.400;2024-03-02T12:47:18;14.40;62.90
74511;DHT22;62991;50.040;18.400;2024-03-02T12:50:19;14.10;64.30
74511;DHT22;62991;50.040;18.400;2024-03-02T12:53:22;14.10;65.10
74511;DHT22;62991;50.040;18.400;2024-03-02T12:56:24;13.80;64.90
74511;DHT22;62991;50.040;18.400;2024-03-02T12:59:25;13.60;65.40
74511;DHT22;62991;50.040;18.400;2024-03-02T13:02:31;13.50;65.50
74511;DHT22;62991;50.040;18.400;2024-03-02T13:05:32;13.50;66.40
74511;DHT22;62991;50.040;18.400;2024-03-02T13:08:33;13.40;66.70
74511;DHT22;62991;50.040;18.400;2024-03-02T13:11:34;13.20;66.80
74511;DHT22;62991;50.040;18.400;2024-03-02T13:14:36;13.20;67.70
74511;DHT22;62991;50.040;18.400;2024-03-02T13:17:37;13.20;67.90
74511;DHT22;62991;50.040;18.400;2024-03-02T13:20:39;13.50;67.90
74511;DHT22;62991;50.040;18.400;2024-03-02T13:23:40;13.50;67.80
74511;DHT22;62991;50.040;18.400;2024-03-02T13:26:41;13.60;68.10
74511;DHT22;62991;50.040;18.400;2024-03-02T13:29:45;13.70;68.00
74511;DHT22;62991;50.040;18.400;2024-03-02T13:32:47;13.70;69.30
74511;DHT22;62991;50.040;18.400;2024-03-02T13:35:48;13.70;69.70
74511;DHT22;62991;50.040;18.400;2024-03-02T13:38:50;13.60;70.70
74511;DHT22;62991;50.040;18.400;2024-03-02T13:41:50;13.80;70.30
74511;DHT22;62991;50.040;18.400;2024-03-02T13:45:02;13.70;70.50
74511;DHT22;62991;50.040;18.400;2024-03-02T13:48:05;13.70;70.50
74511;DHT22;62991;50.040;18.400;2024-03-02T13:51:06;13.70;71.30
74511;DHT22;62991;50.040;18.400;2024-03-02T13:54:06;13.70;71.40
74511;DHT22;62991;50.040;18.400;2024-03-02T13:57:08;13.90;71.10
74511;DHT22;62991;50.040;18.400;2024-03-02T14:00:09;14.00;70.90
74511;DHT22;62991;50.040;18.400;2024-03-02T14:03:12;14.10;70.70
74511;DHT22;62991;50.040;18.400;2024-03-02T14:06:13;14.30;70.50
74511;DHT22;62991;50.040;18.400;2024-03-02T14:09:14;14.50;69.00
74511;DHT22;62991;50.040;18.400;2024-03-02T14:12:15;14.80;68.20
74511;DHT22;62991;50.040;18.400;2024-03-02T14:15:16;15.00;66.90
74511;DHT22;62991;50.040;18.400;2024-03-02T14:18:16;15.00;66.30
74511;DHT22;62991;50.040;18.400;2024-03-02T14:21:17;15.20;66.00
74511;DHT22;62991;50.040;18.400;2024-03-02T14:24:18;15.40;65.60
74511;DHT22;62991;50.040;18.400;2024-03-02T14:27:18;15.50;65.40
74511;DHT22;62991;50.040;18.400;2024-03-02T14:30:19;15.30;66.10
74511;DHT22;62991;50.040;18.400;2024-03-02T14:33:20;15.20;66.20
74511;DHT22;62991;50.040;18.400;2024-03-02T14:36:20;15.30;66.20
74511;DHT22;62991;50.040;18.400;2024-03-02T14:39:21;15.30;66.30
74511;DHT22;62991;50.040;18.400;2024-03-02T14:42:22;15.30;66.20
74511;DHT22;62991;50.040;18.400;2024-03-02T14:45:23;15.50;65.20
74511;DHT22;62991;50.040;18.400;2024-03-02T14:48:24;15.50;64.70
74511;DHT22;62991;50.040;18.400;2024-03-02T14:51:25;15.50;64.80
74511;DHT22;62991;50.040;18.400;2024-03-02T14:54:26;15.20;65.50
74511;DHT22;62991;50.040;18.400;2024-03-02T14:57:26;15.20;66.00
74511;DHT22;62991;50.040;18.400;2024-03-02T15:00:27;15.20;65.70
74511;DHT22;62991;50.040;18.400;2024-03-02T15:03:28;15.20;65.50
74511;DHT22;62991;50.040;18.400;2024-03-02T15:06:29;15.00;65.60
74511;DHT22;62991;50.040;18.400;2024-03-02T15:09:29;15.00;65.90
74511;DHT22;62991;50.040;18.400;2024-03-02T15:12:30;15.00;66.00
74511;DHT22;62991;50.040;18.400;2024-03-02T15:15:31;14.90;66.10
74511;DHT22;62991;50.040;18.400;2024-03-02T15:18:32;14.90;66.20
74511;DHT22;62991;50.040;18.400;2024-03-02T15:21:35;14.90;66.20
74511;DHT22;62991;50.040;18.400;2024-03-02T15:24:36;14.90;66.40
74511;DHT22;62991;50.040;18.400;2024-03-02T15:27:36;14.80;66.70
74511;DHT22;62991;50.040;18.400;2024-03-02T15:30:37;14.80;66.90
74511;DHT22;62991;50.040;18.400;2024-03-02T15:33:38;14.70;66.80
74511;DHT22;62991;50.040;18.400;2024-03-02T15:36:38;14.60;66.90
74511;DHT22;62991;50.040;18.400;2024-03-02T15:39:39;14.60;66.90
74511;DHT22;62991;50.040;18.400;2024-03-02T15:42:40;14.50;67.10
74511;DHT22;62991;50.040;18.400;2024-03-02T15:45:40;14.50;67.10
74511;DHT22;62991;50.040;18.400;2024-03-02T15:48:41;14.50;67.20
74511;DHT22;62991;50.040;18.400;2024-03-02T15:51:42;14.50;67.30
74511;DHT22;62991;50.040;18.400;2024-03-02T15:54:45;14.40;67.30
74511;DHT22;62991;50.040;18.400;2024-03-02T15:57:46;14.40;67.40
74511;DHT22;62991;50.040;18.400;2024-03-02T16:00:47;14.40;67.20
74511;DHT22;62991;50.040;18.400;2024-03-02T16:03:47;14.40;67.10
74511;DHT22;62991;50.040;18.400;2024-03-02T16:06:48;14.40;66.90
74511;DHT22;62991;50.040;18.400;2024-03-02T16:09:49;14.40;66.90
74511;DHT22;62991;50.040;18.400;2024-03-02T16:12:49;14.30;67.10
74511;DHT22;62991;50.040;18.400;2024-03-02T16:15:50;14.30;67.30
74511;DHT22;62991;50.040;18.400;2024-03-02T16:18:51;14.20;67.50
74511;DHT22;62991;50.040;18.400;2024-03-02T16:21:51;14.20;67.80
74511;DHT22;62991;50.040;18.400;2024-03-02T16:24:52;14.20;68.10
74511;DHT22;62991;50.040;18.400;2024-03-02T16:27:53;14.20;68.20
74511;DHT22;62991;50.040;18.400;2024-03-02T16:30:54;14.10;68.40
74511;DHT22;62991;50.040;18.400;2024-03-02T16:33:55;14.10;68.50
74511;DHT22;62991;50.040;18.400;2024-03-02T16:36:56;14.10;68.70
74511;DHT22;62991;50.040;18.400;2024-03-02T16:39:56;14.00;68.90
74511;DHT22;62991;50.040;18.400;2024-03-02T16:42:57;14.00;69.10
74511;DHT22;62991;50.040;18.400;2024-03-02T16:45:58;14.00;69.00
74511;DHT22;62991;50.040;18.400;2024-03-02T16:48:59;14.00;69.20
74511;DHT22;62991;50.040;18.400;2024-03-02T16:51:59;14.00;69.10
74511;DHT22;62991;50.040;18.400;2024-03-02T16:55:00;14.00;69.20
74511;DHT22;62991;50.040;18.400;2024-03-02T16:58:01;14.00;69.20
74511;DHT22;62991;50.040;18.400;2024-03-02T17:01:02;14.00;69.20
74511;DHT22;62991;50.040;18.400;2024-03-02T17:04:03;14.00;69.20
74511;DHT22;62991;50.040;18.400;2024-03-02T17:07:06;13.90;69.60
74511;DHT22;62991;50.040;18.400;2024-03-02T17:10:07;13.80;70.30
74511;DHT22;62991;50.040;18.400;2024-03-02T17:13:08;13.70;70.10
74511;DHT22;62991;50.040;18.400;2024-03-02T17:16:10;13.70;70.70
74511;DHT22;62991;50.040;18.400;2024-03-02T17:19:11;13.80;70.20
74511;DHT22;62991;50.040;18.400;2024-03-02T17:22:12;13.60;70.50
74511;DHT22;62991;50.040;18.400;2024-03-02T17:25:12;13.40;71.10
74511;DHT22;62991;50.040;18.400;2024-03-02T17:28:23;13.20;71.30
74511;DHT22;62991;50.040;18.400;2024-03-02T17:31:25;13.20;71.80
74511;DHT22;62991;50.040;18.400;2024-03-02T17:34:26;13.30;71.60
74511;DHT22;62991;50.040;18.400;2024-03-02T17:37:28;13.20;71.80
74511;DHT22;62991;50.040;18.400;2024-03-02T17:40:29;13.20;72.40
74511;DHT22;62991;50.040;18.400;2024-03-02T17:43:29;13.30;72.00
74511;DHT22;62991;50.040;18.400;2024-03-02T17:46:30;13.30;72.20
74511;DHT22;62991;50.040;18.400;2024-03-02T17:49:30;13.30;71.90
74511;DHT22;62991;50.040;18.400;2024-03-02T17:52:31;13.20;72.10
74511;DHT22;62991;50.040;18.400;2024-03-02T17:55:32;13.30;71.90
74511;DHT22;62991;50.040;18.400;2024-03-02T17:58:32;13.40;71.40
74511;DHT22;62991;50.040;18.400;2024-03-02T18:01:33;13.50;71.30
74511;DHT22;62991;50.040;18.400;2024-03-02T18:04:35;13.30;71.60
74511;DHT22;62991;50.040;18.400;2024-03-02T18:07:36;13.40;71.50
74511;DHT22;62991;50.040;18.400;2024-03-02T18:10:37;13.50;71.40
74511;DHT22;62991;50.040;18.400;2024-03-02T18:13:38;13.50;71.40
74511;DHT22;62991;50.040;18.400;2024-03-02T18:16:38;13.50;71.50
74511;DHT22;62991;50.040;18.400;2024-03-02T18:19:39;13.50;71.30
74511;DHT22;62991;50.040;18.400;2024-03-02T18:22:40;13.50;71.30
74511;DHT22;62991;50.040;18.400;2024-03-02T18:25:40;13.50;71.10
74511;DHT22;62991;50.040;18.400;2024-03-02T18:28:46;13.40;71.60
74511;DHT22;62991;50.040;18.400;2024-03-02T18:31:47;13.50;71.20
74511;DHT22;62991;50.040;18.400;2024-03-02T18:34:48;13.50;71.10
74511;DHT22;62991;50.040;18.400;2024-03-02T18:37:48;13.50;71.20
74511;DHT22;62991;50.040;18.400;2024-03-02T18:40:49;13.50;71.10
74511;DHT22;62991;50.040;18.400;2024-03-02T18:43:50;13.40;71.20
74511;DHT22;62991;50.040;18.400;2024-03-02T18:46:50;13.40;71.20